sensor_id;sensor_type;location;lat;lon;timestamp;pressure;altitude;pressure_sealevel;temperature;humidity
10921;BME280;5513;50.580;8.818;2023-05-22T00:00:23;98721.88;;;18.87;100.00
10921;BME280;5513;50.580;8.818;2023-05-22T00:02:52;98715.03;;;18.93;100.00
10921;BME280;5513;50.580;8.818;2023-05-22T00:05:21;98710.81;;;18.90;100.00
10921;BME280;5513;50.580;8.818;2023-05-22T00:07:49;98706.69;;;19.04;100.00
10921;BME280;5513;50.580;8.818;2023-05-22T00:10:18;98709.47;;;18.86;100.00
10921;BME280;5513;50.580;8.818;2023-05-22T00:12:46;98705.28;;;18.83;100.00
10921;BME280;5513;50.580;8.818;2023-05-22T00:15:16;98716.47;;;18.79;100.00
10921;BME280;5513;50.580;8.818;2023-05-22T00:17:44;98716.69;;;18.59;100.00
10921;BME280;5513;50.580;8.818;2023-05-22T00:20:13;98716.22;;;18.64;100.00
10921;BME280;5513;50.580;8.818;2023-05-22T00:22:41;98711.31;;;18.59;100.00
10921;BME280;5513;50.580;8.818;2023-05-22T00:25:10;98712.38;;;18.41;100.00
10921;BME280;5513;50.580;8.818;2023-05-22T00:27:39;98721.19;;;18.25;100.00
10921;BME280;5513;50.580;8.818;2023-05-22T00:30:08;98727.78;;;18.13;100.00
10921;BME280;5513;50.580;8.818;2023-05-22T00:32:38;98719.97;;;18.19;100.00
10921;BME280;5513;50.580;8.818;2023-05-22T00:35:08;98718.81;;;17.96;100.00
10921;BME280;5513;50.580;8.818;2023-05-22T00:37:36;98717.16;;;17.77;100.00
10921;BME280;5513;50.580;8.818;2023-05-22T00:40:06;98715.66;;;17.83;100.00
10921;BME280;5513;50.580;8.818;2023-05-22T00:42:34;98714.97;;;17.98;100.00
10921;BME280;5513;50.580;8.818;2023-05-22T00:45:03;98722.09;;;17.90;100.00
10921;BME280;5513;50.580;8.818;2023-05-22T00:47:32;98724.53;;;17.83;100.00
10921;BME280;5513;50.580;8.818;2023-05-22T00:50:02;98718.66;;;17.80;100.00
10921;BME280;5513;50.580;8.818;2023-05-22T00:52:31;98720.00;;;17.66;100.00
10921;BME280;5513;50.580;8.818;2023-05-22T00:55:00;98731.03;;;17.63;100.00
10921;BME280;5513;50.580;8.818;2023-05-22T00:57:30;98725.22;;;17.50;100.00
10921;BME280;5513;50.580;8.818;2023-05-22T01:00:02;98727.75;;;17.69;100.00
10921;BME280;5513;50.580;8.818;2023-05-22T01:02:31;98720.16;;;17.64;100.00
10921;BME280;5513;50.580;8.818;2023-05-22T01:05:02;98716.06;;;17.70;100.00
10921;BME280;5513;50.580;8.818;2023-05-22T01:07:32;98715.00;;;17.81;100.00
10921;BME280;5513;50.580;8.818;2023-05-22T01:10:03;98721.78;;;17.75;100.00
10921;BME280;5513;50.580;8.818;2023-05-22T01:12:37;98721.78;;;17.75;100.00
10921;BME280;5513;50.580;8.818;2023-05-22T01:15:16;98716.50;;;17.83;100.00
10921;BME280;5513;50.580;8.818;2023-05-22T01:18:00;98716.16;;;17.78;100.00
10921;BME280;5513;50.580;8.818;2023-05-22T01:20:35;98710.94;;;17.77;100.00
10921;BME280;5513;50.580;8.818;2023-05-22T01:23:30;98720.81;;;17.76;100.00
10921;BME280;5513;50.580;8.818;2023-05-22T01:26:20;98715.97;;;17.62;100.00
10921;BME280;5513;50.580;8.818;2023-05-22T01:31:56;98722.13;;;17.72;100.00
10921;BME280;5513;50.580;8.818;2023-05-22T01:34:27;98728.91;;;17.66;100.00
10921;BME280;5513;50.580;8.818;2023-05-22T01:36:57;98721.72;;;17.67;100.00
10921;BME280;5513;50.580;8.818;2023-05-22T01:39:26;98719.72;;;17.69;100.00
10921;BME280;5513;50.580;8.818;2023-05-22T01:41:55;98727.00;;;17.59;100.00
10921;BME280;5513;50.580;8.818;2023-05-22T01:44:24;98716.81;;;17.62;100.00
10921;BME280;5513;50.580;8.818;2023-05-22T01:46:52;98722.41;;;17.51;100.00
10921;BME280;5513;50.580;8.818;2023-05-22T01:49:22;98722.56;;;17.50;100.00
10921;BME280;5513;50.580;8.818;2023-05-22T01:51:52;98721.47;;;17.42;100.00
10921;BME280;5513;50.580;8.818;2023-05-22T01:54:26;98728.19;;;17.46;100.00
10921;BME280;5513;50.580;8.818;2023-05-22T01:57:04;98723.91;;;17.36;100.00
10921;BME280;5513;50.580;8.818;2023-05-22T01:59:40;98718.13;;;17.40;100.00
10921;BME280;5513;50.580;8.818;2023-05-22T02:02:14;98719.47;;;17.44;100.00
10921;BME280;5513;50.580;8.818;2023-05-22T02:04:50;98724.75;;;17.36;100.00
10921;BME280;5513;50.580;8.818;2023-05-22T02:07:21;98727.97;;;17.40;100.00
10921;BME280;5513;50.580;8.818;2023-05-22T02:09:54;98714.69;;;17.48;100.00
10921;BME280;5513;50.580;8.818;2023-05-22T02:12:23;98722.25;;;17.53;100.00
10921;BME280;5513;50.580;8.818;2023-05-22T02:14:52;98718.03;;;17.50;100.00
10921;BME280;5513;50.580;8.818;2023-05-22T02:17:20;98720.88;;;17.49;100.00
10921;BME280;5513;50.580;8.818;2023-05-22T02:19:51;98715.13;;;17.61;100.00
10921;BME280;5513;50.580;8.818;2023-05-22T02:22:19;98712.00;;;17.48;100.00
10921;BME280;5513;50.580;8.818;2023-05-22T02:24:48;98716.44;;;17.39;100.00
10921;BME280;5513;50.580;8.818;2023-05-22T02:27:17;98704.72;;;17.58;100.00
10921;BME280;5513;50.580;8.818;2023-05-22T02:29:45;98707.41;;;17.58;100.00
10921;BME280;5513;50.580;8.818;2023-05-22T02:32:14;98719.88;;;17.50;100.00
10921;BME280;5513;50.580;8.818;2023-05-22T02:34:42;98716.66;;;17.46;100.00
10921;BME280;5513;50.580;8.818;2023-05-22T02:37:12;98713.00;;;17.47;100.00
10921;BME280;5513;50.580;8.818;2023-05-22T02:39:42;98716.03;;;17.52;100.00
10921;BME280;5513;50.580;8.818;2023-05-22T02:42:11;98709.31;;;17.48;100.00
10921;BME280;5513;50.580;8.818;2023-05-22T02:44:39;98710.09;;;17.58;100.00
10921;BME280;5513;50.580;8.818;2023-05-22T02:47:07;98718.03;;;17.50;100.00
10921;BME280;5513;50.580;8.818;2023-05-22T02:49:35;98703.34;;;17.54;100.00
10921;BME280;5513;50.580;8.818;2023-05-22T02:52:04;98706.09;;;17.44;100.00
10921;BME280;5513;50.580;8.818;2023-05-22T02:54:34;98714.22;;;17.53;100.00
10921;BME280;5513;50.580;8.818;2023-05-22T02:57:02;98701.66;;;17.53;100.00
10921;BME280;5513;50.580;8.818;2023-05-22T02:59:31;98702.72;;;17.42;100.00
10921;BME280;5513;50.580;8.818;2023-05-22T03:02:01;98698.81;;;17.55;100.00
10921;BME280;5513;50.580;8.818;2023-05-22T03:04:30;98713.22;;;17.54;100.00
10921;BME280;5513;50.580;8.818;2023-05-22T03:06:58;98703.03;;;17.39;100.00
10921;BME280;5513;50.580;8.818;2023-05-22T03:09:27;98703.66;;;17.51;100.00
10921;BME280;5513;50.580;8.818;2023-05-22T03:11:57;98698.22;;;17.43;100.00
10921;BME280;5513;50.580;8.818;2023-05-22T03:14:27;98688.59;;;17.50;100.00
10921;BME280;5513;50.580;8.818;2023-05-22T03:16:56;98697.78;;;17.48;100.00
10921;BME280;5513;50.580;8.818;2023-05-22T03:19:24;98702.88;;;17.41;100.00
10921;BME280;5513;50.580;8.818;2023-05-22T03:21:53;98702.72;;;17.42;100.00
10921;BME280;5513;50.580;8.818;2023-05-22T03:24:21;98693.84;;;17.42;100.00
10921;BME280;5513;50.580;8.818;2023-05-22T03:26:49;98691.50;;;17.39;100.00
10921;BME280;5513;50.580;8.818;2023-05-22T03:29:19;98701.88;;;17.42;100.00
10921;BME280;5513;50.580;8.818;2023-05-22T03:31:48;98703.81;;;17.32;100.00
10921;BME280;5513;50.580;8.818;2023-05-22T03:34:16;98702.88;;;17.23;100.00
10921;BME280;5513;50.580;8.818;2023-05-22T03:36:45;98707.00;;;17.35;100.00
10921;BME280;5513;50.580;8.818;2023-05-22T03:39:13;98703.28;;;17.28;100.00
10921;BME280;5513;50.580;8.818;2023-05-22T03:41:41;98707.91;;;17.26;100.00
10921;BME280;5513;50.580;8.818;2023-05-22T03:44:09;98700.72;;;17.27;100.00
10921;BME280;5513;50.580;8.818;2023-05-22T03:46:39;98704.63;;;17.32;100.00
10921;BME280;5513;50.580;8.818;2023-05-22T03:49:08;98702.13;;;17.31;100.00
10921;BME280;5513;50.580;8.818;2023-05-22T03:51:36;98701.31;;;17.03;100.00
10921;BME280;5513;50.580;8.818;2023-05-22T03:54:04;98703.00;;;17.04;100.00
10921;BME280;5513;50.580;8.818;2023-05-22T03:56:33;98699.72;;;17.10;100.00
10921;BME280;5513;50.580;8.818;2023-05-22T03:59:03;98698.44;;;17.14;100.00
10921;BME280;5513;50.580;8.818;2023-05-22T04:01:31;98706.25;;;16.98;100.00
10921;BME280;5513;50.580;8.818;2023-05-22T04:04:01;98706.97;;;17.00;100.00
10921;BME280;5513;50.580;8.818;2023-05-22T04:06:31;98699.31;;;17.05;100.00
10921;BME280;5513;50.580;8.818;2023-05-22T04:09:00;98701.84;;;17.06;100.00
10921;BME280;5513;50.580;8.818;2023-05-22T04:11:28;98701.56;;;17.09;100.00
10921;BME280;5513;50.580;8.818;2023-05-22T04:14:02;98703.63;;;17.15;100.00
10921;BME280;5513;50.580;8.818;2023-05-22T04:16:30;98707.28;;;17.14;100.00
10921;BME280;5513;50.580;8.818;2023-05-22T04:18:58;98700.84;;;17.07;100.00
10921;BME280;5513;50.580;8.818;2023-05-22T04:21:30;98709.25;;;16.95;100.00
10921;BME280;5513;50.580;8.818;2023-05-22T04:24:00;98708.34;;;17.04;100.00
10921;BME280;5513;50.580;8.818;2023-05-22T04:26:33;98714.53;;;17.04;100.00
10921;BME280;5513;50.580;8.818;2023-05-22T04:29:02;98706.81;;;17.01;100.00
10921;BME280;5513;50.580;8.818;2023-05-22T04:31:32;98715.69;;;17.02;100.00
10921;BME280;5513;50.580;8.818;2023-05-22T04:34:00;98717.44;;;16.93;100.00
10921;BME280;5513;50.580;8.818;2023-05-22T04:36:31;98716.53;;;17.02;100.00
10921;BME280;5513;50.580;8.818;2023-05-22T04:38:59;98715.06;;;17.08;100.00
10921;BME280;5513;50.580;8.818;2023-05-22T04:41:28;98718.63;;;17.08;100.00
10921;BME280;5513;50.580;8.818;2023-05-22T04:43:57;98719.75;;;17.06;100.00
10921;BME280;5513;50.580;8.818;2023-05-22T04:46:26;98722.81;;;17.11;100.00
10921;BME280;5513;50.580;8.818;2023-05-22T04:48:54;98723.66;;;17.11;100.00
10921;BME280;5513;50.580;8.818;2023-05-22T04:51:25;98724.03;;;17.16;100.00
10921;BME280;5513;50.580;8.818;2023-05-22T04:53:55;98734.00;;;17.24;100.00
10921;BME280;5513;50.580;8.818;2023-05-22T04:56:24;98736.84;;;17.23;100.00
10921;BME280;5513;50.580;8.818;2023-05-22T04:59:02;98733.97;;;17.06;100.00
10921;BME280;5513;50.580;8.818;2023-05-22T05:01:35;98738.63;;;17.04;100.00
10921;BME280;5513;50.580;8.818;2023-05-22T05:04:03;98741.16;;;17.06;100.00
10921;BME280;5513;50.580;8.818;2023-05-22T05:06:32;98737.19;;;17.10;100.00
10921;BME280;5513;50.580;8.818;2023-05-22T05:09:03;98740.31;;;17.05;100.00
10921;BME280;5513;50.580;8.818;2023-05-22T05:11:31;98737.56;;;17.15;100.00
10921;BME280;5513;50.580;8.818;2023-05-22T05:13:59;98726.44;;;17.20;100.00
10921;BME280;5513;50.580;8.818;2023-05-22T05:16:27;98739.16;;;17.08;100.00
10921;BME280;5513;50.580;8.818;2023-05-22T05:18:55;98729.63;;;17.23;100.00
10921;BME280;5513;50.580;8.818;2023-05-22T05:21:24;98733.38;;;17.12;100.00
10921;BME280;5513;50.580;8.818;2023-05-22T05:23:53;98740.34;;;17.23;100.00
10921;BME280;5513;50.580;8.818;2023-05-22T05:26:23;98743.28;;;17.30;100.00
10921;BME280;5513;50.580;8.818;2023-05-22T05:28:52;98749.00;;;17.35;100.00
10921;BME280;5513;50.580;8.818;2023-05-22T05:31:22;98743.22;;;17.39;100.00
10921;BME280;5513;50.580;8.818;2023-05-22T05:33:51;98740.06;;;17.44;100.00
10921;BME280;5513;50.580;8.818;2023-05-22T05:36:22;98743.44;;;17.64;100.00
10921;BME280;5513;50.580;8.818;2023-05-22T05:38:51;98747.47;;;17.78;100.00
10921;BME280;5513;50.580;8.818;2023-05-22T05:41:20;98740.44;;;18.02;100.00
10921;BME280;5513;50.580;8.818;2023-05-22T05:43:50;98743.97;;;18.03;100.00
10921;BME280;5513;50.580;8.818;2023-05-22T05:46:18;98748.19;;;18.06;100.00
10921;BME280;5513;50.580;8.818;2023-05-22T05:48:47;98741.41;;;18.19;100.00
10921;BME280;5513;50.580;8.818;2023-05-22T05:51:15;98747.28;;;18.23;100.00
10921;BME280;5513;50.580;8.818;2023-05-22T05:53:43;98743.31;;;18.27;100.00
10921;BME280;5513;50.580;8.818;2023-05-22T05:56:12;98750.59;;;18.35;100.00
10921;BME280;5513;50.580;8.818;2023-05-22T05:58:40;98749.81;;;18.50;100.00
10921;BME280;5513;50.580;8.818;2023-05-22T06:01:10;98746.53;;;18.56;100.00
10921;BME280;5513;50.580;8.818;2023-05-22T06:03:38;98745.16;;;18.78;100.00
10921;BME280;5513;50.580;8.818;2023-05-22T06:06:08;98738.78;;;18.79;100.00
10921;BME280;5513;50.580;8.818;2023-05-22T06:08:38;98742.72;;;18.93;100.00
10921;BME280;5513;50.580;8.818;2023-05-22T06:11:08;98745.09;;;19.04;100.00
10921;BME280;5513;50.580;8.818;2023-05-22T06:13:36;98748.97;;;19.02;100.00
10921;BME280;5513;50.580;8.818;2023-05-22T06:16:04;98747.53;;;19.24;100.00
10921;BME280;5513;50.580;8.818;2023-05-22T06:18:34;98746.16;;;19.20;100.00
10921;BME280;5513;50.580;8.818;2023-05-22T06:21:03;98759.75;;;19.18;100.00
10921;BME280;5513;50.580;8.818;2023-05-22T06:23:31;98750.94;;;19.50;100.00
10921;BME280;5513;50.580;8.818;2023-05-22T06:25:59;98755.47;;;19.50;100.00
10921;BME280;5513;50.580;8.818;2023-05-22T06:28:28;98759.06;;;19.66;100.00
10921;BME280;5513;50.580;8.818;2023-05-22T06:30:57;98757.38;;;19.73;100.00
10921;BME280;5513;50.580;8.818;2023-05-22T06:33:25;98756.22;;;19.92;100.00
10921;BME280;5513;50.580;8.818;2023-05-22T06:35:55;98759.41;;;20.12;100.00
10921;BME280;5513;50.580;8.818;2023-05-22T06:38:24;98755.88;;;20.20;100.00
10921;BME280;5513;50.580;8.818;2023-05-22T06:40:52;98759.41;;;20.37;100.00
10921;BME280;5513;50.580;8.818;2023-05-22T06:43:20;98757.56;;;20.45;100.00
10921;BME280;5513;50.580;8.818;2023-05-22T06:45:49;98756.03;;;20.26;100.00
10921;BME280;5513;50.580;8.818;2023-05-22T06:48:18;98756.19;;;20.41;100.00
10921;BME280;5513;50.580;8.818;2023-05-22T06:50:47;98755.72;;;20.38;100.00
10921;BME280;5513;50.580;8.818;2023-05-22T06:53:16;98761.06;;;20.62;100.00
10921;BME280;5513;50.580;8.818;2023-05-22T06:55:45;98761.03;;;20.78;100.00
10921;BME280;5513;50.580;8.818;2023-05-22T06:58:13;98758.13;;;20.88;100.00
10921;BME280;5513;50.580;8.818;2023-05-22T07:00:42;98761.34;;;20.83;100.00
10921;BME280;5513;50.580;8.818;2023-05-22T07:03:10;98765.03;;;21.22;100.00
10921;BME280;5513;50.580;8.818;2023-05-22T07:05:39;98763.47;;;21.43;100.00
10921;BME280;5513;50.580;8.818;2023-05-22T07:08:07;98759.97;;;21.35;100.00
10921;BME280;5513;50.580;8.818;2023-05-22T07:10:39;98760.78;;;21.66;100.00
10921;BME280;5513;50.580;8.818;2023-05-22T07:13:08;98759.06;;;21.74;100.00
10921;BME280;5513;50.580;8.818;2023-05-22T07:15:36;98752.81;;;21.96;100.00
10921;BME280;5513;50.580;8.818;2023-05-22T07:18:05;98750.06;;;22.04;100.00
10921;BME280;5513;50.580;8.818;2023-05-22T07:20:36;98756.53;;;22.18;100.00
10921;BME280;5513;50.580;8.818;2023-05-22T07:23:04;98753.25;;;22.08;100.00
10921;BME280;5513;50.580;8.818;2023-05-22T07:25:33;98754.44;;;22.28;100.00
10921;BME280;5513;50.580;8.818;2023-05-22T07:28:03;98757.09;;;22.13;100.00
10921;BME280;5513;50.580;8.818;2023-05-22T07:30:35;98760.50;;;22.45;100.00
10921;BME280;5513;50.580;8.818;2023-05-22T07:33:04;98754.84;;;22.40;100.00
10921;BME280;5513;50.580;8.818;2023-05-22T07:35:33;98755.78;;;22.76;100.00
10921;BME280;5513;50.580;8.818;2023-05-22T07:38:02;98749.31;;;22.85;100.00
10921;BME280;5513;50.580;8.818;2023-05-22T07:40:30;98754.91;;;22.99;100.00
10921;BME280;5513;50.580;8.818;2023-05-22T07:42:59;98749.56;;;23.05;100.00
10921;BME280;5513;50.580;8.818;2023-05-22T07:45:29;98746.31;;;23.10;100.00
10921;BME280;5513;50.580;8.818;2023-05-22T07:47:58;98743.53;;;23.18;100.00
10921;BME280;5513;50.580;8.818;2023-05-22T07:50:27;98745.38;;;23.18;100.00
10921;BME280;5513;50.580;8.818;2023-05-22T07:52:56;98738.25;;;23.46;100.00
10921;BME280;5513;50.580;8.818;2023-05-22T07:55:24;98734.03;;;23.43;100.00
10921;BME280;5513;50.580;8.818;2023-05-22T07:57:53;98738.50;;;23.51;100.00
10921;BME280;5513;50.580;8.818;2023-05-22T08:00:22;98744.97;;;23.72;100.00
10921;BME280;5513;50.580;8.818;2023-05-22T08:02:52;98745.16;;;23.70;100.00
10921;BME280;5513;50.580;8.818;2023-05-22T08:05:21;98744.84;;;24.01;100.00
10921;BME280;5513;50.580;8.818;2023-05-22T08:07:49;98743.56;;;23.97;100.00
10921;BME280;5513;50.580;8.818;2023-05-22T08:10:18;98746.31;;;23.82;100.00
10921;BME280;5513;50.580;8.818;2023-05-22T08:12:46;98745.69;;;24.02;100.00
10921;BME280;5513;50.580;8.818;2023-05-22T08:15:15;98746.41;;;23.89;100.00
10921;BME280;5513;50.580;8.818;2023-05-22T08:17:43;98744.97;;;24.14;100.00
10921;BME280;5513;50.580;8.818;2023-05-22T08:20:13;98749.88;;;23.83;100.00
10921;BME280;5513;50.580;8.818;2023-05-22T08:22:42;98749.69;;;24.06;95.85
10921;BME280;5513;50.580;8.818;2023-05-22T08:25:13;98748.81;;;24.48;100.00
10921;BME280;5513;50.580;8.818;2023-05-22T08:27:41;98750.63;;;24.19;94.82
10921;BME280;5513;50.580;8.818;2023-05-22T08:30:10;98754.13;;;24.35;89.01
10921;BME280;5513;50.580;8.818;2023-05-22T08:32:38;98753.66;;;24.31;88.36
10921;BME280;5513;50.580;8.818;2023-05-22T08:35:07;98753.38;;;24.47;85.69
10921;BME280;5513;50.580;8.818;2023-05-22T08:37:38;98749.81;;;24.75;83.01
10921;BME280;5513;50.580;8.818;2023-05-22T08:40:09;98762.53;;;25.02;79.95
10921;BME280;5513;50.580;8.818;2023-05-22T08:42:38;98754.72;;;24.93;78.74
10921;BME280;5513;50.580;8.818;2023-05-22T08:45:07;98749.53;;;24.98;79.26
10921;BME280;5513;50.580;8.818;2023-05-22T08:47:36;98750.75;;;25.30;82.49
10921;BME280;5513;50.580;8.818;2023-05-22T08:50:05;98734.75;;;25.00;81.81
10921;BME280;5513;50.580;8.818;2023-05-22T08:52:41;98745.84;;;25.05;80.93
10921;BME280;5513;50.580;8.818;2023-05-22T08:55:13;98740.97;;;25.29;82.22
10921;BME280;5513;50.580;8.818;2023-05-22T08:57:42;98737.84;;;24.97;82.33
10921;BME280;5513;50.580;8.818;2023-05-22T09:00:12;98739.50;;;25.33;82.14
10921;BME280;5513;50.580;8.818;2023-05-22T09:02:41;98734.13;;;25.39;85.55
10921;BME280;5513;50.580;8.818;2023-05-22T09:05:10;98735.91;;;25.19;86.67
10921;BME280;5513;50.580;8.818;2023-05-22T09:07:41;98731.63;;;25.51;82.20
10921;BME280;5513;50.580;8.818;2023-05-22T09:10:09;98729.78;;;25.58;81.48
10921;BME280;5513;50.580;8.818;2023-05-22T09:12:58;98736.34;;;24.88;85.08
10921;BME280;5513;50.580;8.818;2023-05-22T09:15:29;98732.19;;;25.33;85.69
10921;BME280;5513;50.580;8.818;2023-05-22T09:17:57;98737.53;;;25.68;84.90
10921;BME280;5513;50.580;8.818;2023-05-22T09:20:26;98731.50;;;25.73;84.06
10921;BME280;5513;50.580;8.818;2023-05-22T09:22:56;98722.25;;;25.67;84.74
10921;BME280;5513;50.580;8.818;2023-05-22T09:25:24;98732.75;;;25.77;83.44
10921;BME280;5513;50.580;8.818;2023-05-22T09:27:54;98726.69;;;25.75;81.59
10921;BME280;5513;50.580;8.818;2023-05-22T09:30:22;98727.56;;;26.15;82.19
10921;BME280;5513;50.580;8.818;2023-05-22T09:32:50;98722.34;;;26.13;82.29
10921;BME280;5513;50.580;8.818;2023-05-22T09:35:21;98724.47;;;26.38;75.82
10921;BME280;5513;50.580;8.818;2023-05-22T09:37:55;98722.97;;;26.68;74.22
10921;BME280;5513;50.580;8.818;2023-05-22T09:40:26;98725.69;;;26.68;74.45
10921;BME280;5513;50.580;8.818;2023-05-22T09:42:54;98715.63;;;25.69;80.40
10921;BME280;5513;50.580;8.818;2023-05-22T09:45:22;98720.69;;;26.32;82.49
10921;BME280;5513;50.580;8.818;2023-05-22T09:47:52;98724.63;;;26.63;82.93
10921;BME280;5513;50.580;8.818;2023-05-22T09:50:20;98715.56;;;27.08;75.21
10921;BME280;5513;50.580;8.818;2023-05-22T09:52:49;98720.97;;;27.02;74.94
10921;BME280;5513;50.580;8.818;2023-05-22T09:55:21;98719.59;;;27.37;75.74
10921;BME280;5513;50.580;8.818;2023-05-22T09:57:51;98706.78;;;27.51;77.42
10921;BME280;5513;50.580;8.818;2023-05-22T10:00:19;98721.28;;;27.77;73.92
10921;BME280;5513;50.580;8.818;2023-05-22T10:02:52;98716.06;;;27.75;72.77
10921;BME280;5513;50.580;8.818;2023-05-22T10:05:22;98717.34;;;27.73;70.29
10921;BME280;5513;50.580;8.818;2023-05-22T10:07:55;98715.69;;;27.72;69.58
10921;BME280;5513;50.580;8.818;2023-05-22T10:10:25;98710.59;;;28.07;66.54
10921;BME280;5513;50.580;8.818;2023-05-22T10:12:56;98708.56;;;27.64;69.25
10921;BME280;5513;50.580;8.818;2023-05-22T10:15:30;98701.03;;;28.22;63.07
10921;BME280;5513;50.580;8.818;2023-05-22T10:17:58;98702.91;;;28.29;63.34
10921;BME280;5513;50.580;8.818;2023-05-22T10:20:28;98713.16;;;28.51;61.95
10921;BME280;5513;50.580;8.818;2023-05-22T10:22:57;98710.69;;;28.68;62.30
10921;BME280;5513;50.580;8.818;2023-05-22T10:25:28;98709.88;;;29.04;59.13
10921;BME280;5513;50.580;8.818;2023-05-22T10:27:56;98704.03;;;29.19;54.94
10921;BME280;5513;50.580;8.818;2023-05-22T10:30:31;98707.28;;;28.73;56.90
10921;BME280;5513;50.580;8.818;2023-05-22T10:33:04;98704.84;;;28.83;57.76
10921;BME280;5513;50.580;8.818;2023-05-22T10:35:46;98702.94;;;29.39;59.23
10921;BME280;5513;50.580;8.818;2023-05-22T10:38:28;98694.22;;;28.57;62.71
10921;BME280;5513;50.580;8.818;2023-05-22T10:41:00;98689.66;;;29.60;65.54
10921;BME280;5513;50.580;8.818;2023-05-22T10:43:30;98687.94;;;29.89;57.17
10921;BME280;5513;50.580;8.818;2023-05-22T10:46:01;98689.50;;;29.97;52.51
10921;BME280;5513;50.580;8.818;2023-05-22T10:48:36;98675.63;;;29.57;52.70
10921;BME280;5513;50.580;8.818;2023-05-22T10:51:05;98673.78;;;28.29;58.24
10921;BME280;5513;50.580;8.818;2023-05-22T10:53:34;98677.22;;;29.16;56.40
10921;BME280;5513;50.580;8.818;2023-05-22T10:56:20;98675.03;;;29.25;55.22
10921;BME280;5513;50.580;8.818;2023-05-22T10:58:55;98663.31;;;29.66;52.43
10921;BME280;5513;50.580;8.818;2023-05-22T11:01:25;98661.84;;;30.05;53.97
10921;BME280;5513;50.580;8.818;2023-05-22T11:03:55;98668.91;;;29.41;53.15
10921;BME280;5513;50.580;8.818;2023-05-22T11:06:37;98668.84;;;29.29;55.39
10921;BME280;5513;50.580;8.818;2023-05-22T11:09:17;98664.19;;;29.78;50.53
10921;BME280;5513;50.580;8.818;2023-05-22T11:14:57;98648.31;;;30.69;48.49
10921;BME280;5513;50.580;8.818;2023-05-22T11:17:27;98657.25;;;30.64;47.83
10921;BME280;5513;50.580;8.818;2023-05-22T11:19:59;98668.41;;;30.63;47.28
10921;BME280;5513;50.580;8.818;2023-05-22T11:22:33;98657.94;;;30.83;47.66
10921;BME280;5513;50.580;8.818;2023-05-22T11:25:07;98661.09;;;31.03;45.65
10921;BME280;5513;50.580;8.818;2023-05-22T11:27:40;98645.53;;;31.32;45.86
10921;BME280;5513;50.580;8.818;2023-05-22T11:30:10;98649.59;;;31.30;45.73
10921;BME280;5513;50.580;8.818;2023-05-22T11:32:40;98651.41;;;31.24;45.40
10921;BME280;5513;50.580;8.818;2023-05-22T11:35:13;98641.28;;;31.25;45.00
10921;BME280;5513;50.580;8.818;2023-05-22T11:37:43;98646.81;;;31.42;46.26
10921;BME280;5513;50.580;8.818;2023-05-22T11:40:13;98636.31;;;31.67;48.04
10921;BME280;5513;50.580;8.818;2023-05-22T11:42:44;98637.94;;;31.51;46.98
10921;BME280;5513;50.580;8.818;2023-05-22T11:45:12;98635.72;;;31.65;46.72
10921;BME280;5513;50.580;8.818;2023-05-22T11:47:42;98633.91;;;30.85;47.92
10921;BME280;5513;50.580;8.818;2023-05-22T11:50:11;98621.16;;;31.31;46.11
10921;BME280;5513;50.580;8.818;2023-05-22T11:52:43;98624.75;;;31.20;46.40
10921;BME280;5513;50.580;8.818;2023-05-22T11:55:12;98624.53;;;30.81;48.55
10921;BME280;5513;50.580;8.818;2023-05-22T11:57:40;98616.63;;;30.09;52.38
10921;BME280;5513;50.580;8.818;2023-05-22T12:00:12;98621.13;;;30.04;52.34
10921;BME280;5513;50.580;8.818;2023-05-22T12:02:43;98619.09;;;30.11;56.37
10921;BME280;5513;50.580;8.818;2023-05-22T12:05:13;98609.78;;;29.65;55.64
10921;BME280;5513;50.580;8.818;2023-05-22T12:07:42;98607.31;;;29.99;53.08
10921;BME280;5513;50.580;8.818;2023-05-22T12:10:12;98606.75;;;30.43;51.12
10921;BME280;5513;50.580;8.818;2023-05-22T12:12:42;98609.16;;;30.92;49.95
10921;BME280;5513;50.580;8.818;2023-05-22T12:15:13;98606.69;;;31.07;48.40
10921;BME280;5513;50.580;8.818;2023-05-22T12:17:41;98607.97;;;31.16;47.52
10921;BME280;5513;50.580;8.818;2023-05-22T12:20:11;98603.31;;;31.45;48.01
10921;BME280;5513;50.580;8.818;2023-05-22T12:22:41;98603.50;;;31.55;50.16
10921;BME280;5513;50.580;8.818;2023-05-22T12:25:14;98607.69;;;32.25;44.09
10921;BME280;5513;50.580;8.818;2023-05-22T12:27:44;98608.16;;;32.22;42.48
10921;BME280;5513;50.580;8.818;2023-05-22T12:30:14;98603.59;;;32.44;42.47
10921;BME280;5513;50.580;8.818;2023-05-22T12:32:46;98602.09;;;31.53;40.26
10921;BME280;5513;50.580;8.818;2023-05-22T12:35:16;98598.44;;;31.30;39.77
10921;BME280;5513;50.580;8.818;2023-05-22T12:37:50;98594.91;;;31.18;40.03
10921;BME280;5513;50.580;8.818;2023-05-22T12:40:19;98602.81;;;31.03;40.62
10921;BME280;5513;50.580;8.818;2023-05-22T12:42:47;98593.22;;;30.89;40.38
10921;BME280;5513;50.580;8.818;2023-05-22T12:45:17;98599.50;;;31.29;41.69
10921;BME280;5513;50.580;8.818;2023-05-22T12:47:45;98590.47;;;31.29;39.57
10921;BME280;5513;50.580;8.818;2023-05-22T12:50:14;98589.53;;;31.23;40.56
10921;BME280;5513;50.580;8.818;2023-05-22T12:52:42;98594.47;;;31.72;39.80
10921;BME280;5513;50.580;8.818;2023-05-22T12:55:10;98592.78;;;32.21;39.28
10921;BME280;5513;50.580;8.818;2023-05-22T12:57:39;98589.56;;;32.24;39.70
10921;BME280;5513;50.580;8.818;2023-05-22T13:00:08;98588.91;;;32.34;39.06
10921;BME280;5513;50.580;8.818;2023-05-22T13:02:39;98582.97;;;32.42;38.83
10921;BME280;5513;50.580;8.818;2023-05-22T13:05:07;98585.38;;;32.00;37.71
10921;BME280;5513;50.580;8.818;2023-05-22T13:07:36;98582.84;;;32.32;39.31
10921;BME280;5513;50.580;8.818;2023-05-22T13:10:06;98582.59;;;32.33;39.65
10921;BME280;5513;50.580;8.818;2023-05-22T13:12:36;98579.63;;;32.01;40.55
10921;BME280;5513;50.580;8.818;2023-05-22T13:15:06;98574.78;;;32.64;40.66
10921;BME280;5513;50.580;8.818;2023-05-22T13:17:35;98577.50;;;32.64;40.09
10921;BME280;5513;50.580;8.818;2023-05-22T13:20:07;98580.44;;;32.57;40.19
10921;BME280;5513;50.580;8.818;2023-05-22T13:22:35;98578.53;;;32.58;39.40
10921;BME280;5513;50.580;8.818;2023-05-22T13:25:04;98579.22;;;32.48;40.04